Time;durP1;ratioP1;P1;durP2;ratioP2;P2;SDS_P1;SDS_P2;PMS_P1;PMS_P2;Temp;Humidity;BMP_temperature;BMP_pressure;BME280_temperature;BME280_humidity;BME280_pressure;Samples;Min_cycle;Max_cycle;Signal;HPM_P1;HPM_P2
2022/04/07 00:01:04;;;;;;;7.55;5.72;;;;;;;12.65;54.80;94901.54;1632359;87;21133;-83
2022/04/07 00:03:30;;;;;;;11.60;7.35;;;;;;;12.69;54.70;94909.69;1654628;87;21421;-83
2022/04/07 00:05:56;;;;;;;10.95;8.18;;;;;;;12.70;54.90;94905.57;1654599;87;21125;-83
2022/04/07 00:08:21;;;;;;;8.95;6.50;;;;;;;12.70;54.46;94902.97;1654665;87;21134;-83
2022/04/07 00:10:48;;;;;;;11.57;7.60;;;;;;;12.72;54.79;94897.52;1654550;87;21519;-82
2022/04/07 00:13:14;;;;;;;24.43;16.57;;;;;;;12.76;54.37;94899.94;1654122;87;21193;-82
2022/04/07 00:15:41;;;;;;;11.73;7.75;;;;;;;12.78;55.01;94897.38;1654486;87;21049;-82
2022/04/07 00:18:07;;;;;;;8.80;6.33;;;;;;;12.79;53.95;94905.47;1654451;87;21365;-83
2022/04/07 00:20:34;;;;;;;10.85;6.97;;;;;;;12.82;54.30;94895.89;1654387;87;20974;-83
2022/04/07 00:23:00;;;;;;;13.20;8.38;;;;;;;12.85;54.42;94898.53;1654125;87;21113;-83
2022/04/07 00:25:26;;;;;;;9.10;5.90;;;;;;;12.87;54.41;94893.39;1654536;87;20979;-82
2022/04/07 00:27:52;;;;;;;8.53;5.97;;;;;;;12.91;54.43;94889.30;1654416;87;21361;-83
2022/04/07 00:30:20;;;;;;;18.00;11.57;;;;;;;12.92;53.93;94884.36;1654556;87;21336;-83
2022/04/07 00:32:47;;;;;;;13.08;8.13;;;;;;;12.95;54.22;94886.22;1653336;87;21053;-83
2022/04/07 00:35:13;;;;;;;19.73;13.20;;;;;;;12.95;53.94;94878.39;1654389;87;21065;-82
2022/04/07 00:37:39;;;;;;;13.58;10.35;;;;;;;12.96;54.16;94883.38;1654533;87;20989;-83
2022/04/07 00:40:06;;;;;;;8.00;6.10;;;;;;;12.96;54.04;94879.47;1637117;86;21022;-83
2022/04/07 00:42:32;;;;;;;10.18;8.33;;;;;;;12.95;53.73;94875.79;1626433;88;21010;-82
2022/04/07 00:45:00;;;;;;;8.05;5.78;;;;;;;12.97;54.09;94878.44;1626649;88;21448;-83
2022/04/07 00:47:27;;;;;;;9.33;6.37;;;;;;;13.01;53.88;94873.55;1626455;87;21001;-83
2022/04/07 00:49:54;;;;;;;10.13;6.72;;;;;;;13.05;53.82;94874.17;1626387;88;21050;-83
2022/04/07 00:52:19;;;;;;;13.40;8.18;;;;;;;13.07;54.03;94868.20;1626580;88;21395;-82
2022/04/07 00:54:46;;;;;;;6.95;5.33;;;;;;;13.09;54.02;94866.16;1643518;85;21353;-83
2022/04/07 00:57:12;;;;;;;12.15;7.42;;;;;;;13.11;53.75;94870.62;1654564;87;21030;-83
2022/04/07 00:59:38;;;;;;;9.63;7.25;;;;;;;13.12;53.30;94867.50;1652073;87;21013;-83
2022/04/07 01:02:04;;;;;;;10.08;7.00;;;;;;;13.13;53.71;94865.95;1654509;87;21045;-83
2022/04/07 01:04:29;;;;;;;10.53;7.47;;;;;;;13.13;53.12;94862.05;1629570;88;21014;-82
2022/04/07 01:06:55;;;;;;;9.15;6.42;;;;;;;13.14;53.30;94861.02;1654539;87;21026;-82
2022/04/07 01:09:21;;;;;;;8.03;5.87;;;;;;;13.12;53.75;94864.37;1629382;88;22261;-83
2022/04/07 01:11:47;;;;;;;6.20;3.90;;;;;;;13.09;54.00;94872.67;1654546;87;20982;-83
2022/04/07 01:14:13;;;;;;;6.10;4.45;;;;;;;13.03;54.15;94884.05;1631713;88;21069;-83
2022/04/07 01:16:39;;;;;;;5.58;4.30;;;;;;;12.94;54.38;94881.52;1604729;89;21469;-82
2022/04/07 01:19:05;;;;;;;6.65;5.60;;;;;;;12.86;54.60;94882.69;1654851;87;21066;-83
2022/04/07 01:21:31;;;;;;;9.85;6.17;;;;;;;12.78;54.84;94886.95;1654956;87;21380;-83
2022/04/07 01:24:02;;;;;;;10.93;6.78;;;;;;;12.70;54.90;94880.02;1654838;87;20990;-83
2022/04/07 01:26:37;;;;;;;14.45;9.38;;;;;;;12.62;55.07;94881.95;1655050;87;20994;-82
2022/04/07 01:29:02;;;;;;;24.43;16.02;;;;;;;12.55;55.04;94882.61;1654560;85;21058;-83
2022/04/07 01:31:27;;;;;;;19.25;11.75;;;;;;;12.49;55.34;94880.11;1653728;87;21494;-83
2022/04/07 01:33:55;;;;;;;25.00;16.00;;;;;;;12.42;55.44;94874.24;1654703;87;21094;-82
2022/04/07 01:36:21;;;;;;;12.90;8.95;;;;;;;12.37;55.65;94879.36;1654635;87;21489;-82
2022/04/07 01:38:47;;;;;;;11.83;8.33;;;;;;;12.28;55.82;94874.48;1630108;87;21109;-83
2022/04/07 01:41:12;;;;;;;14.28;9.93;;;;;;;12.23;55.69;94869.69;1626944;88;21097;-83
2022/04/07 01:43:38;;;;;;;15.05;10.30;;;;;;;12.20;55.96;94874.03;1626735;87;21595;-83
2022/04/07 01:46:05;;;;;;;13.65;9.25;;;;;;;12.16;56.12;94870.30;1626990;88;21066;-83
2022/04/07 01:48:30;;;;;;;11.38;7.62;;;;;;;12.10;56.09;94866.02;1626669;87;21027;-83
2022/04/07 01:50:57;;;;;;;10.28;6.95;;;;;;;12.06;56.27;94863.59;1626896;87;21441;-83
2022/04/07 01:53:24;;;;;;;11.45;8.73;;;;;;;12.02;56.12;94860.12;1630730;85;21157;-83
2022/04/07 01:55:50;;;;;;;9.08;6.60;;;;;;;12.02;56.13;94860.62;1651663;87;21447;-83
2022/04/07 01:58:16;;;;;;;8.48;6.28;;;;;;;12.00;56.25;94862.67;1654764;87;21078;-82
2022/04/07 02:00:42;;;;;;;13.05;9.65;;;;;;;11.99;56.24;94863.69;1654602;87;20954;-82
2022/04/07 02:03:11;;;;;;;8.28;6.00;;;;;;;11.98;56.27;94866.80;1654748;87;21507;-83
2022/04/07 02:05:36;;;;;;;9.45;7.25;;;;;;;12.00;56.34;94873.08;1654931;87;20970;-83
2022/04/07 02:08:02;;;;;;;11.75;8.43;;;;;;;11.99;56.18;94864.99;1652400;87;21297;-83
2022/04/07 02:10:30;;;;;;;6.85;4.78;;;;;;;11.98;56.79;94868.61;1641782;87;21039;-82
2022/04/07 02:12:56;;;;;;;8.90;6.35;;;;;;;11.92;56.57;94867.72;1641583;87;21047;-82
2022/04/07 02:15:25;;;;;;;7.67;5.95;;;;;;;11.91;56.54;94874.45;1641663;87;21028;-83
2022/04/07 02:17:50;;;;;;;7.37;4.35;;;;;;;11.89;56.81;94876.50;1641731;87;21677;-83
2022/04/07 02:20:16;;;;;;;5.30;3.80;;;;;;;11.86;56.76;94881.63;1641761;87;21040;-83
2022/04/07 02:22:42;;;;;;;3.90;3.22;;;;;;;11.84;56.83;94879.75;1641909;87;21064;-83
2022/04/07 02:25:09;;;;;;;6.22;3.70;;;;;;;11.81;57.13;94880.21;1640960;87;21068;-83
2022/04/07 02:27:38;;;;;;;4.67;3.85;;;;;;;11.75;57.38;94888.90;1627517;87;21050;-83
2022/04/07 02:30:06;;;;;;;5.58;4.40;;;;;;;11.70;57.87;94896.05;1652378;87;21094;-83
2022/04/07 02:32:32;;;;;;;10.30;6.05;;;;;;;11.63;58.07;94899.80;1626503;88;20953;-82
2022/04/07 02:34:57;;;;;;;26.30;16.37;;;;;;;11.57;58.41;94902.00;1626459;88;21051;-82
2022/04/07 02:37:25;;;;;;;11.20;7.87;;;;;;;11.51;58.67;94898.46;1618205;88;21359;-82
2022/04/07 02:39:52;;;;;;;7.12;4.45;;;;;;;11.45;59.47;94899.88;1622116;87;21030;-83
2022/04/07 02:42:19;;;;;;;5.47;3.52;;;;;;;11.34;60.12;94889.20;1622062;87;21030;-82
2022/04/07 02:44:44;;;;;;;5.20;3.87;;;;;;;11.25;60.28;94889.77;1622185;87;21139;-83
2022/04/07 02:47:10;;;;;;;5.08;3.77;;;;;;;11.13;60.57;94890.52;1643746;87;21030;-83
2022/04/07 02:49:39;;;;;;;4.65;3.58;;;;;;;11.04;60.94;94887.13;1648077;87;21033;-82
2022/04/07 02:52:06;;;;;;;3.95;3.35;;;;;;;10.92;61.42;94881.12;1648046;86;21018;-83
2022/04/07 02:54:32;;;;;;;6.15;3.75;;;;;;;10.81;62.11;94888.63;1644291;87;21018;-83
2022/04/07 02:56:58;;;;;;;4.55;3.12;;;;;;;10.72;62.07;94887.33;1654560;87;21050;-83
2022/04/07 02:59:23;;;;;;;6.58;4.70;;;;;;;10.66;62.42;94888.22;1654369;87;21038;-83
2022/04/07 03:01:51;;;;;;;26.68;15.53;;;;;;;10.61;62.59;94887.29;1654310;87;21030;-82
2022/04/07 03:04:17;;;;;;;29.30;18.90;;;;;;;10.59;62.19;94893.21;1654309;87;21405;-82
2022/04/07 03:06:43;;;;;;;13.00;9.63;;;;;;;10.61;62.13;94891.98;1654348;87;20967;-82
2022/04/07 03:09:09;;;;;;;12.70;9.55;;;;;;;10.66;62.20;94896.52;1625291;88;21001;-83
2022/04/07 03:11:34;;;;;;;10.65;7.80;;;;;;;10.71;62.28;94900.03;1654512;87;21405;-83
2022/04/07 03:14:00;;;;;;;14.03;9.55;;;;;;;10.75;62.68;94900.41;1630695;87;21040;-83
2022/04/07 03:16:26;;;;;;;14.55;9.88;;;;;;;10.77;62.67;94896.58;1604786;89;21055;-83
2022/04/07 03:18:52;;;;;;;14.45;9.55;;;;;;;10.79;62.64;94891.95;1654487;87;22088;-83
2022/04/07 03:21:18;;;;;;;11.50;7.60;;;;;;;10.79;62.89;94884.16;1654845;87;21061;-82
2022/04/07 03:23:43;;;;;;;8.93;5.12;;;;;;;10.82;62.57;94893.31;1654855;87;20987;-82
2022/04/07 03:26:09;;;;;;;10.32;6.85;;;;;;;10.84;62.55;94891.29;1654686;87;21022;-82
2022/04/07 03:28:36;;;;;;;22.90;15.90;;;;;;;10.86;62.71;94890.56;1633563;87;21106;-82
2022/04/07 03:31:02;;;;;;;12.50;9.15;;;;;;;10.86;62.68;94893.16;1631756;87;21404;-82
2022/04/07 03:33:28;;;;;;;7.45;6.00;;;;;;;10.87;62.73;94888.76;1654905;87;21092;-83
2022/04/07 03:35:54;;;;;;;6.50;5.80;;;;;;;10.87;62.63;94882.26;1654651;87;20996;-82
2022/04/07 03:38:20;;;;;;;8.78;6.58;;;;;;;10.87;62.53;94884.86;1639949;87;21461;-82
2022/04/07 03:40:46;;;;;;;11.15;7.62;;;;;;;10.89;62.42;94882.33;1626695;88;21093;-82
2022/04/07 03:43:11;;;;;;;9.95;6.22;;;;;;;10.90;62.46;94874.84;1626745;88;20967;-82
2022/04/07 03:45:38;;;;;;;6.85;4.95;;;;;;;10.90;62.32;94872.72;1626556;87;21484;-82
2022/04/07 03:48:04;;;;;;;6.33;4.55;;;;;;;10.91;62.07;94873.03;1626642;88;21424;-82
2022/04/07 03:50:30;;;;;;;10.25;6.28;;;;;;;10.95;62.08;94878.07;1626635;87;20995;-82
2022/04/07 03:52:55;;;;;;;10.38;6.75;;;;;;;10.97;62.02;94877.34;1637878;86;21022;-82
2022/04/07 03:55:22;;;;;;;11.22;8.00;;;;;;;10.97;62.03;94880.73;1654618;87;21046;-82
2022/04/07 03:57:48;;;;;;;11.08;7.78;;;;;;;10.98;62.35;94890.11;1649716;87;21041;-82
2022/04/07 04:00:16;;;;;;;9.75;7.35;;;;;;;10.97;62.83;94889.83;1626846;88;21377;-83
2022/04/07 04:02:42;;;;;;;5.55;4.80;;;;;;;10.94;63.61;94886.88;1651917;87;20963;-82
2022/04/07 04:05:08;;;;;;;4.33;3.47;;;;;;;10.90;63.66;94885.72;1654829;87;21041;-82
2022/04/07 04:07:34;;;;;;;6.72;5.03;;;;;;;10.87;64.44;94886.16;1654704;87;21130;-83
2022/04/07 04:10:01;;;;;;;6.33;4.92;;;;;;;10.84;65.58;94888.69;1654748;87;21145;-82
2022/04/07 04:12:26;;;;;;;7.55;4.47;;;;;;;10.75;66.00;94896.52;1654821;87;21358;-82
2022/04/07 04:14:52;;;;;;;7.17;5.42;;;;;;;10.60;66.49;94894.30;1642170;87;21162;-82
2022/04/07 04:17:18;;;;;;;6.62;4.45;;;;;;;10.47;66.80;94890.54;1640580;87;21026;-82
2022/04/07 04:19:44;;;;;;;9.95;7.85;;;;;;;10.40;67.19;94896.30;1640455;87;20983;-82
2022/04/07 04:22:10;;;;;;;15.10;10.23;;;;;;;10.34;67.17;94897.96;1603974;89;21023;-82
2022/04/07 04:24:36;;;;;;;10.88;8.65;;;;;;;10.29;67.39;94904.31;1603876;89;21035;-82
2022/04/07 04:27:02;;;;;;;6.55;4.50;;;;;;;10.25;68.07;94901.05;1604022;89;21139;-82
2022/04/07 04:29:29;;;;;;;3.37;2.10;;;;;;;10.20;67.80;94908.16;1603749;89;21119;-82
2022/04/07 04:31:54;;;;;;;2.35;1.77;;;;;;;10.13;67.75;94899.66;1603860;89;21403;-82
2022/04/07 04:34:20;;;;;;;1.50;1.30;;;;;;;10.04;68.19;94897.83;1604250;88;21407;-82
2022/04/07 04:36:46;;;;;;;1.20;1.10;;;;;;;9.92;69.16;94895.16;1603918;89;21016;-82
2022/04/07 04:39:12;;;;;;;1.70;1.50;;;;;;;9.78;69.59;94889.00;1578239;88;21023;-82
2022/04/07 04:41:37;;;;;;;1.30;1.17;;;;;;;9.65;70.21;94876.14;1577720;91;21008;-82
2022/04/07 04:44:03;;;;;;;2.75;0.70;;;;;;;9.55;71.53;94863.13;1577531;91;21457;-83
2022/04/07 04:46:29;;;;;;;2.58;2.30;;;;;;;9.49;71.72;94861.91;1617235;89;21504;-83
2022/04/07 04:48:55;;;;;;;0.93;0.72;;;;;;;9.41;72.06;94875.11;1617258;87;21023;-82
2022/04/07 04:51:21;;;;;;;1.12;0.70;;;;;;;9.34;71.79;94866.09;1617296;89;21002;-83
2022/04/07 04:53:46;;;;;;;3.25;2.95;;;;;;;9.34;73.86;94862.20;1617165;89;21003;-83
2022/04/07 04:56:12;;;;;;;2.10;1.90;;;;;;;9.32;73.16;94862.92;1617287;87;21375;-82
2022/04/07 04:58:38;;;;;;;1.00;0.90;;;;;;;9.29;73.14;94867.23;1617188;89;21059;-82
2022/04/07 05:01:03;;;;;;;1.15;1.02;;;;;;;9.30;73.34;94857.95;1628281;86;21038;-82
2022/04/07 05:03:29;;;;;;;7.03;6.30;;;;;;;9.38;72.65;94868.55;1637474;87;22042;-82
2022/04/07 05:05:55;;;;;;;7.65;6.95;;;;;;;9.44;72.61;94865.64;1617141;89;21101;-82
2022/04/07 05:08:21;;;;;;;12.30;11.03;;;;;;;9.46;72.33;94857.94;1617045;87;21078;-82
2022/04/07 05:10:46;;;;;;;6.85;6.20;;;;;;;9.46;72.56;94861.03;1618338;87;21070;-82
2022/04/07 05:13:12;;;;;;;4.22;3.83;;;;;;;9.46;73.09;94867.52;1617990;87;21447;-82
2022/04/07 05:15:39;;;;;;;2.90;2.67;;;;;;;9.45;73.18;94865.93;1618186;87;21133;-82
2022/04/07 05:18:05;;;;;;;4.08;3.08;;;;;;;9.48;72.37;94864.20;1618589;89;21043;-82
2022/04/07 05:20:31;;;;;;;2.52;1.20;;;;;;;9.52;71.67;94867.95;1618634;87;21043;-83
2022/04/07 05:22:57;;;;;;;2.00;1.90;;;;;;;9.59;70.76;94869.98;1627966;87;21393;-82
2022/04/07 05:25:23;;;;;;;2.02;1.77;;;;;;;9.64;70.99;94872.75;1644818;87;21341;-82
2022/04/07 05:27:49;;;;;;;2.45;2.25;;;;;;;9.67;70.37;94875.42;1635759;87;20983;-82
2022/04/07 05:30:17;;;;;;;3.02;2.45;;;;;;;9.70;70.70;94869.80;1614715;87;20991;-82
2022/04/07 05:32:44;;;;;;;2.35;2.15;;;;;;;9.72;70.83;94867.78;1638293;87;21030;-82
2022/04/07 05:35:12;;;;;;;2.15;1.95;;;;;;;9.73;70.24;94874.05;1614929;87;21363;-82
2022/04/07 05:37:38;;;;;;;3.50;1.98;;;;;;;9.79;71.08;94871.13;1618156;87;21028;-82
2022/04/07 05:40:04;;;;;;;3.20;2.90;;;;;;;9.84;69.66;94872.07;1618284;87;21419;-82
2022/04/07 05:42:31;;;;;;;5.80;4.90;;;;;;;9.93;69.37;94871.30;1616895;87;20983;-82
2022/04/07 05:44:56;;;;;;;5.15;2.90;;;;;;;10.02;69.12;94866.61;1617111;87;21429;-82
2022/04/07 05:47:22;;;;;;;2.50;2.30;;;;;;;10.11;69.19;94857.05;1617094;87;20987;-82
2022/04/07 05:49:48;;;;;;;3.22;2.17;;;;;;;10.15;69.26;94858.20;1618303;87;21110;-82
2022/04/07 05:52:14;;;;;;;4.22;3.25;;;;;;;10.19;68.22;94857.25;1617955;87;22054;-83
2022/04/07 05:54:40;;;;;;;2.65;2.10;;;;;;;10.26;68.58;94855.94;1618076;87;21102;-82
2022/04/07 05:57:06;;;;;;;4.05;3.05;;;;;;;10.30;68.36;94850.09;1617051;87;21086;-82
2022/04/07 05:59:32;;;;;;;2.98;2.75;;;;;;;10.37;68.63;94848.20;1615782;87;20975;-82
2022/04/07 06:01:57;;;;;;;2.40;2.10;;;;;;;10.48;68.61;94855.27;1637599;86;20991;-82
2022/04/07 06:04:23;;;;;;;2.35;2.10;;;;;;;10.61;68.14;94844.44;1644779;87;21402;-82
2022/04/07 06:06:49;;;;;;;2.40;1.85;;;;;;;10.76;67.96;94843.04;1617766;87;21021;-82
2022/04/07 06:09:14;;;;;;;1.80;1.32;;;;;;;10.86;67.31;94849.50;1642422;87;20995;-83
2022/04/07 06:11:40;;;;;;;2.08;1.20;;;;;;;10.92;67.34;94850.72;1644691;87;21365;-82
2022/04/07 06:14:06;;;;;;;2.15;1.40;;;;;;;10.95;66.58;94848.19;1642858;87;21110;-81
2022/04/07 06:16:32;;;;;;;1.98;1.55;;;;;;;10.97;66.31;94852.66;1622456;88;21408;-83
2022/04/07 06:18:58;;;;;;;2.37;1.98;;;;;;;10.92;66.38;94848.63;1589195;90;21000;-82
2022/04/07 06:21:24;;;;;;;1.42;1.15;;;;;;;11.02;66.35;94856.67;1567055;91;21145;-81
2022/04/07 06:23:51;;;;;;;2.22;1.75;;;;;;;11.03;65.80;94862.16;1578739;91;20999;-82
2022/04/07 06:26:18;;;;;;;1.65;1.20;;;;;;;11.02;66.02;94863.96;1609712;87;21075;-81
2022/04/07 06:28:44;;;;;;;1.60;1.40;;;;;;;11.04;66.17;94854.64;1611815;87;20995;-81
2022/04/07 06:31:10;;;;;;;2.15;1.95;;;;;;;11.06;65.99;94844.81;1619727;87;21059;-81
2022/04/07 06:33:36;;;;;;;2.70;1.70;;;;;;;11.11;66.14;94844.96;1610084;87;21429;-81
2022/04/07 06:36:03;;;;;;;2.65;1.65;;;;;;;11.15;65.85;94847.39;1613664;87;21039;-82
2022/04/07 06:38:30;;;;;;;1.98;1.50;;;;;;;11.15;65.66;94834.39;1617312;87;21434;-82
2022/04/07 06:40:57;;;;;;;2.58;1.67;;;;;;;11.13;65.81;94829.93;1603243;87;21035;-82
2022/04/07 06:43:24;;;;;;;3.15;2.08;;;;;;;11.12;66.28;94836.94;1614041;87;21059;-81
2022/04/07 06:45:49;;;;;;;2.20;1.77;;;;;;;11.14;65.99;94844.51;1617201;87;21126;-81
2022/04/07 06:48:15;;;;;;;2.75;2.20;;;;;;;11.17;66.37;94837.56;1613486;87;20966;-81
2022/04/07 06:50:41;;;;;;;5.15;2.02;;;;;;;11.19;66.18;94839.94;1613977;87;20982;-82
2022/04/07 06:53:07;;;;;;;2.80;2.10;;;;;;;11.22;66.57;94842.09;1613945;87;21421;-81
2022/04/07 06:55:32;;;;;;;2.90;2.12;;;;;;;11.25;66.42;94837.77;1614939;87;21055;-81
2022/04/07 06:58:03;;;;;;;2.67;2.08;;;;;;;11.24;66.14;94836.97;1614295;87;21019;-81
2022/04/07 07:00:37;;;;;;;2.80;2.37;;;;;;;11.25;66.22;94839.86;1620901;86;21016;-82
2022/04/07 07:03:03;;;;;;;2.20;1.67;;;;;;;11.27;65.96;94837.82;1623243;87;21010;-81
2022/04/07 07:05:34;;;;;;;2.50;1.50;;;;;;;11.34;66.13;94833.30;1617454;87;21027;-82
2022/04/07 07:08:20;;;;;;;2.42;1.80;;;;;;;11.37;65.53;94836.75;1627027;87;21098;-82
2022/04/07 07:10:48;;;;;;;2.47;1.98;;;;;;;11.41;65.54;94838.42;1605653;87;20993;-81
2022/04/07 07:13:20;;;;;;;3.72;2.70;;;;;;;11.41;65.25;94839.72;1639631;87;21024;-81
2022/04/07 07:15:47;;;;;;;4.95;3.22;;;;;;;11.45;65.65;94835.64;1636123;87;21428;-81
2022/04/07 07:18:13;;;;;;;3.52;2.30;;;;;;;11.48;65.58;94835.70;1626584;87;21030;-81
2022/04/07 07:20:39;;;;;;;3.52;2.10;;;;;;;11.54;65.82;94829.59;1628712;87;21051;-82
2022/04/07 07:23:05;;;;;;;1.30;0.98;;;;;;;11.62;65.40;94828.76;1626539;87;20979;-81
2022/04/07 07:25:31;;;;;;;1.05;0.80;;;;;;;11.79;65.23;94829.41;1626494;87;21021;-82
2022/04/07 07:28:01;;;;;;;1.70;0.90;;;;;;;11.96;64.46;94825.90;1628610;87;21057;-81
2022/04/07 07:30:28;;;;;;;1.85;1.00;;;;;;;12.06;63.60;94829.75;1627760;87;21490;-82
2022/04/07 07:32:54;;;;;;;1.35;1.00;;;;;;;12.21;64.10;94833.98;1627201;87;21029;-82
2022/04/07 07:35:20;;;;;;;1.90;1.15;;;;;;;12.29;63.72;94831.80;1626933;87;21041;-81
2022/04/07 07:37:54;;;;;;;1.65;1.20;;;;;;;12.35;63.52;94838.40;1626065;87;21006;-82
2022/04/07 07:40:22;;;;;;;2.02;1.40;;;;;;;12.40;63.77;94836.70;1626715;87;21408;-82
2022/04/07 07:42:49;;;;;;;2.90;1.32;;;;;;;12.46;62.95;94842.29;1627797;87;21033;-83
2022/04/07 07:45:15;;;;;;;2.70;1.20;;;;;;;12.56;62.71;94829.98;1626438;87;21441;-83
2022/04/07 07:47:41;;;;;;;3.15;1.15;;;;;;;12.69;63.16;94831.50;1627342;87;21033;-83
2022/04/07 07:50:08;;;;;;;2.35;1.00;;;;;;;12.90;63.30;94832.18;1628035;87;21014;-83
2022/04/07 07:52:34;;;;;;;1.75;0.90;;;;;;;13.13;61.79;94844.30;1626990;87;21370;-83
2022/04/07 07:54:59;;;;;;;1.65;1.07;;;;;;;13.29;60.99;94841.47;1626984;87;21049;-82
2022/04/07 07:57:25;;;;;;;1.92;1.07;;;;;;;13.41;61.79;94831.25;1626878;87;21353;-83
2022/04/07 07:59:51;;;;;;;2.42;1.00;;;;;;;13.50;61.47;94829.84;1630455;87;21070;-82
2022/04/07 08:02:18;;;;;;;2.33;1.20;;;;;;;13.62;60.30;94827.13;1627223;87;20989;-83
2022/04/07 08:04:45;;;;;;;2.95;2.10;;;;;;;13.66;60.75;94830.05;1626871;87;21002;-82
2022/04/07 08:07:13;;;;;;;4.25;3.33;;;;;;;13.72;60.30;94833.82;1627176;87;21018;-82
2022/04/07 08:09:38;;;;;;;3.12;2.25;;;;;;;13.76;60.49;94830.21;1634594;85;20986;-83
2022/04/07 08:12:05;;;;;;;2.65;1.67;;;;;;;13.74;60.21;94831.77;1630940;87;21001;-82
2022/04/07 08:14:31;;;;;;;1.98;1.20;;;;;;;13.74;60.31;94829.66;1628280;87;20991;-82
2022/04/07 08:16:57;;;;;;;2.10;1.12;;;;;;;13.79;60.88;94827.13;1619090;87;21086;-82
2022/04/07 08:19:22;;;;;;;2.27;1.35;;;;;;;13.86;60.31;94827.77;1617451;87;21015;-82
2022/04/07 08:21:48;;;;;;;2.40;1.30;;;;;;;13.92;60.31;94828.61;1616921;87;21327;-83
2022/04/07 08:24:19;;;;;;;3.05;1.72;;;;;;;14.01;59.91;94825.88;1616880;87;20959;-83
2022/04/07 08:26:44;;;;;;;3.10;1.72;;;;;;;14.12;60.07;94824.97;1638659;87;20955;-82
2022/04/07 08:29:10;;;;;;;2.35;1.20;;;;;;;14.20;59.50;94828.48;1631621;87;21027;-82
2022/04/07 08:31:35;;;;;;;2.20;1.40;;;;;;;14.36;60.14;94826.86;1621125;87;21351;-82
2022/04/07 08:34:01;;;;;;;2.10;1.27;;;;;;;14.63;60.36;94825.10;1632105;87;21052;-84
2022/04/07 08:36:27;;;;;;;4.55;2.27;;;;;;;14.66;59.05;94828.55;1631301;87;21041;-83
2022/04/07 08:38:53;;;;;;;3.02;1.60;;;;;;;14.65;59.75;94824.36;1617351;87;21055;-83
2022/04/07 08:41:18;;;;;;;2.52;1.50;;;;;;;14.69;58.83;94826.75;1619932;87;21467;-83
2022/04/07 08:43:44;;;;;;;2.60;1.27;;;;;;;14.70;58.21;94817.87;1617990;87;21019;-83
2022/04/07 08:46:11;;;;;;;2.08;1.30;;;;;;;14.63;58.12;94825.62;1616395;87;20974;-83
2022/04/07 08:48:43;;;;;;;4.35;1.75;;;;;;;14.53;58.32;94821.08;1617217;87;21033;-82
2022/04/07 08:51:10;;;;;;;3.22;1.52;;;;;;;14.48;58.74;94822.34;1633544;87;21031;-83
2022/04/07 08:53:38;;;;;;;2.62;1.45;;;;;;;14.36;58.30;94820.33;1619366;87;21133;-82
2022/04/07 08:56:04;;;;;;;2.72;1.40;;;;;;;14.27;57.44;94808.19;1618562;87;21468;-83
2022/04/07 08:58:30;;;;;;;3.22;1.57;;;;;;;14.18;58.19;94802.34;1615258;87;21357;-83
2022/04/07 09:00:56;;;;;;;1.98;1.42;;;;;;;14.11;58.22;94804.59;1616353;87;20998;-83
2022/04/07 09:03:22;;;;;;;2.52;1.40;;;;;;;14.06;57.58;94793.30;1618266;87;20977;-83
2022/04/07 09:05:58;;;;;;;2.37;1.80;;;;;;;13.98;58.16;94795.00;1618420;87;21091;-83
2022/04/07 09:08:36;;;;;;;2.37;1.67;;;;;;;13.98;57.53;94793.70;1616857;87;21137;-83
2022/04/07 09:11:05;;;;;;;2.67;1.87;;;;;;;13.96;58.64;94787.41;1617997;87;20988;-83
2022/04/07 09:13:35;;;;;;;2.62;1.50;;;;;;;13.98;58.38;94783.25;1618590;87;21398;-82
2022/04/07 09:16:07;;;;;;;2.30;1.77;;;;;;;13.97;58.67;94778.55;1641490;87;21080;-83
2022/04/07 09:18:37;;;;;;;1.72;1.40;;;;;;;14.00;58.78;94785.13;1643391;86;21052;-83
2022/04/07 09:21:04;;;;;;;2.90;1.40;;;;;;;14.01;58.41;94781.48;1626664;87;20998;-83
2022/04/07 09:23:41;;;;;;;2.05;1.62;;;;;;;14.08;58.54;94779.48;1626422;87;20994;-83
2022/04/07 09:26:14;;;;;;;3.12;1.27;;;;;;;14.14;58.36;94770.66;1627140;87;21105;-82
2022/04/07 09:28:40;;;;;;;2.92;1.22;;;;;;;14.23;58.88;94764.00;1632906;87;20982;-83
2022/04/07 09:31:06;;;;;;;4.08;1.35;;;;;;;14.34;59.12;94765.70;1630559;87;21428;-83
2022/04/07 09:33:32;;;;;;;3.62;1.50;;;;;;;14.45;59.38;94764.00;1628161;87;21022;-83
2022/04/07 09:36:06;;;;;;;2.75;1.30;;;;;;;14.56;58.44;94760.47;1649240;87;20990;-82
2022/04/07 09:38:34;;;;;;;2.20;1.42;;;;;;;14.60;58.20;94760.77;1627962;87;21065;-82
2022/04/07 09:41:08;;;;;;;2.27;1.25;;;;;;;14.74;58.20;94760.66;1627557;87;21050;-82
2022/04/07 09:43:43;;;;;;;3.08;1.12;;;;;;;14.86;57.09;94754.77;1629388;87;20990;-82
2022/04/07 09:46:11;;;;;;;2.00;1.42;;;;;;;14.91;56.48;94744.86;1627563;87;21014;-82
2022/04/07 09:48:38;;;;;;;4.00;1.67;;;;;;;15.07;56.63;94743.16;1646412;87;21447;-82
2022/04/07 09:51:09;;;;;;;2.30;2.00;;;;;;;15.24;57.20;94749.84;1605992;88;21055;-82
2022/04/07 09:53:37;;;;;;;1.67;1.35;;;;;;;15.51;57.46;94728.84;1653728;87;20986;-82
2022/04/07 09:56:05;;;;;;;1.57;1.00;;;;;;;15.67;56.55;94727.14;1649796;87;21026;-83
2022/04/07 09:58:32;;;;;;;2.72;1.25;;;;;;;15.63;55.69;94728.70;1628970;87;21388;-83
2022/04/07 10:01:02;;;;;;;1.90;1.20;;;;;;;15.64;56.00;94723.73;1612862;87;20975;-83
2022/04/07 10:03:30;;;;;;;1.90;1.27;;;;;;;15.64;55.58;94713.25;1632270;87;21029;-82
2022/04/07 10:05:59;;;;;;;3.05;1.87;;;;;;;15.51;54.29;94713.66;1645877;87;21336;-83
2022/04/07 10:08:26;;;;;;;3.47;1.50;;;;;;;15.40;53.98;94707.56;1637975;86;21346;-82
2022/04/07 10:10:53;;;;;;;1.50;1.20;;;;;;;15.34;54.12;94699.95;1634034;87;20990;-82
2022/04/07 10:13:20;;;;;;;1.75;1.17;;;;;;;15.35;54.71;94693.15;1629180;87;21479;-83
2022/04/07 10:15:50;;;;;;;2.52;1.65;;;;;;;15.34;54.55;94687.65;1626539;87;21101;-82
2022/04/07 10:18:25;;;;;;;1.92;1.62;;;;;;;15.34;54.66;94686.86;1620701;87;21314;-82
2022/04/07 10:20:53;;;;;;;3.35;1.95;;;;;;;15.33;54.49;94687.38;1624274;87;20995;-83
2022/04/07 10:23:46;;;;;;;2.25;1.80;;;;;;;15.27;54.31;94682.62;1623693;87;21007;-83
2022/04/07 10:26:12;;;;;;;3.55;2.20;;;;;;;15.17;54.13;94671.31;1627272;87;21039;-83
2022/04/07 10:28:38;;;;;;;3.70;1.92;;;;;;;15.04;54.14;94674.36;1626167;87;21083;-83
2022/04/07 10:31:15;;;;;;;2.10;1.62;;;;;;;14.93;54.18;94666.94;1633753;86;20972;-82
2022/04/07 10:33:48;;;;;;;2.02;1.55;;;;;;;14.90;54.41;94668.23;1629955;87;21002;-83
2022/04/07 10:36:22;;;;;;;2.33;1.92;;;;;;;14.87;53.91;94667.95;1619299;87;21158;-82
2022/04/07 10:38:54;;;;;;;2.90;1.82;;;;;;;14.80;53.99;94668.66;1628199;87;20975;-82
2022/04/07 10:41:44;;;;;;;2.95;2.12;;;;;;;14.77;54.99;94660.02;1630799;87;21090;-82
2022/04/07 10:44:21;;;;;;;2.17;1.70;;;;;;;14.77;55.27;94663.42;1628180;87;21110;-82
2022/04/07 10:46:47;;;;;;;2.40;1.80;;;;;;;14.76;54.76;94663.67;1621196;87;21081;-82
2022/04/07 10:49:24;;;;;;;2.25;1.60;;;;;;;14.74;55.30;94656.08;1619940;87;21010;-82
2022/04/07 10:51:53;;;;;;;2.00;1.50;;;;;;;14.74;55.56;94655.29;1606360;87;22601;-82
2022/04/07 10:54:21;;;;;;;2.72;1.95;;;;;;;14.68;54.48;94655.78;1636037;87;21066;-82
2022/04/07 10:56:49;;;;;;;2.77;2.02;;;;;;;14.64;54.87;94647.65;1622633;87;21023;-82
2022/04/07 10:59:27;;;;;;;4.35;2.60;;;;;;;14.59;53.39;94642.87;1636146;87;21011;-83
2022/04/07 11:02:04;;;;;;;3.75;2.33;;;;;;;14.53;54.75;94643.36;1636489;87;20975;-82
2022/04/07 11:04:44;;;;;;;3.42;2.40;;;;;;;14.52;54.47;94631.33;1636816;87;20990;-83
2022/04/07 11:07:13;;;;;;;3.45;2.67;;;;;;;14.51;54.82;94638.91;1600878;88;21463;-82
2022/04/07 11:09:54;;;;;;;3.98;3.17;;;;;;;14.51;55.36;94632.89;1622494;87;21035;-82
2022/04/07 11:12:37;;;;;;;4.00;3.22;;;;;;;14.53;55.65;94631.60;1618134;87;20975;-82
2022/04/07 11:15:09;;;;;;;4.58;2.67;;;;;;;14.57;56.13;94627.45;1622453;86;21257;-82
2022/04/07 11:17:45;;;;;;;3.67;2.45;;;;;;;14.58;55.26;94621.70;1617963;87;21059;-82
2022/04/07 11:20:24;;;;;;;3.37;2.27;;;;;;;14.55;54.98;94617.77;1602920;87;21047;-82
2022/04/07 11:23:08;;;;;;;4.25;2.27;;;;;;;14.53;54.69;94624.28;1621357;87;20967;-82
2022/04/07 11:25:39;;;;;;;3.08;2.40;;;;;;;14.54;54.68;94626.64;1618486;87;20966;-83
2022/04/07 11:28:14;;;;;;;3.60;2.40;;;;;;;14.57;54.35;94623.53;1616835;87;21363;-82
2022/04/07 11:30:52;;;;;;;3.27;2.50;;;;;;;14.63;54.86;94617.30;1623549;86;21047;-82
2022/04/07 11:33:26;;;;;;;3.22;2.17;;;;;;;14.69;54.96;94611.61;1635919;87;21482;-83